sensor_id;sensor_type;location;lat;lon;timestamp;pressure;altitude;pressure_sealevel;temperature;humidity
22657;BME280;11495;55.610;12.100;2022-08-21T00:00:43;101490.38;;;14.55;0.00
22657;BME280;11495;55.610;12.100;2022-08-21T00:03:10;101483.50;;;14.48;0.00
22657;BME280;11495;55.610;12.100;2022-08-21T00:05:39;101482.41;;;14.39;0.00
22657;BME280;11495;55.610;12.100;2022-08-21T00:08:06;101475.53;;;14.31;0.00
22657;BME280;11495;55.610;12.100;2022-08-21T00:10:32;101475.03;;;14.24;0.00
22657;BME280;11495;55.610;12.100;2022-08-21T00:12:58;101472.03;;;14.15;0.00
22657;BME280;11495;55.610;12.100;2022-08-21T00:15:28;101475.66;;;14.11;0.00
22657;BME280;11495;55.610;12.100;2022-08-21T00:17:55;101474.53;;;14.06;0.00
22657;BME280;11495;55.610;12.100;2022-08-21T00:20:21;101471.00;;;14.01;0.00
22657;BME280;11495;55.610;12.100;2022-08-21T00:22:47;101467.97;;;13.92;0.00
22657;BME280;11495;55.610;12.100;2022-08-21T00:25:14;101464.94;;;13.94;0.00
22657;BME280;11495;55.610;12.100;2022-08-21T00:27:41;101461.63;;;13.92;0.00
22657;BME280;11495;55.610;12.100;2022-08-21T00:30:08;101452.78;;;13.85;0.00
22657;BME280;11495;55.610;12.100;2022-08-21T00:32:37;101457.50;;;13.79;0.00
22657;BME280;11495;55.610;12.100;2022-08-21T00:35:07;101442.31;;;13.76;0.00
22657;BME280;11495;55.610;12.100;2022-08-21T00:37:33;101447.25;;;13.85;0.00
22657;BME280;11495;55.610;12.100;2022-08-21T00:39:58;101425.09;;;13.90;0.00
22657;BME280;11495;55.610;12.100;2022-08-21T00:42:24;101410.72;;;13.93;0.00
22657;BME280;11495;55.610;12.100;2022-08-21T00:44:49;101399.03;;;14.06;0.00
22657;BME280;11495;55.610;12.100;2022-08-21T00:47:16;101370.16;;;14.22;0.00
22657;BME280;11495;55.610;12.100;2022-08-21T00:49:43;101339.91;;;14.41;0.00
22657;BME280;11495;55.610;12.100;2022-08-21T00:52:12;101318.50;;;14.57;0.00
22657;BME280;11495;55.610;12.100;2022-08-21T00:54:41;101282.44;;;14.62;0.00
22657;BME280;11495;55.610;12.100;2022-08-21T00:57:13;101272.19;;;14.63;0.00
22657;BME280;11495;55.610;12.100;2022-08-21T00:59:40;101254.47;;;14.64;0.00
22657;BME280;11495;55.610;12.100;2022-08-21T01:02:07;101245.34;;;14.63;0.00
22657;BME280;11495;55.610;12.100;2022-08-21T01:04:36;101233.44;;;14.63;0.00
22657;BME280;11495;55.610;12.100;2022-08-21T01:07:02;101230.09;;;14.66;0.00
22657;BME280;11495;55.610;12.100;2022-08-21T01:09:28;101219.28;;;14.64;0.00
22657;BME280;11495;55.610;12.100;2022-08-21T01:11:53;101214.88;;;14.63;0.00
22657;BME280;11495;55.610;12.100;2022-08-21T01:14:19;101216.59;;;14.59;0.00
22657;BME280;11495;55.610;12.100;2022-08-21T01:16:52;101209.97;;;14.55;0.00
22657;BME280;11495;55.610;12.100;2022-08-21T01:19:20;101210.34;;;14.48;0.00
22657;BME280;11495;55.610;12.100;2022-08-21T01:21:46;101211.19;;;14.44;0.00
22657;BME280;11495;55.610;12.100;2022-08-21T01:24:12;101210.66;;;14.42;0.00
22657;BME280;11495;55.610;12.100;2022-08-21T01:26:38;101210.94;;;14.40;0.00
22657;BME280;11495;55.610;12.100;2022-08-21T01:32:07;101213.53;;;14.31;0.00
22657;BME280;11495;55.610;12.100;2022-08-21T01:34:36;101219.69;;;14.23;0.00
22657;BME280;11495;55.610;12.100;2022-08-21T01:37:02;101214.72;;;14.20;0.00
22657;BME280;11495;55.610;12.100;2022-08-21T01:39:28;101220.84;;;14.17;0.00
22657;BME280;11495;55.610;12.100;2022-08-21T01:41:54;101221.97;;;14.16;0.00
22657;BME280;11495;55.610;12.100;2022-08-21T01:44:21;101214.81;;;14.10;0.00
22657;BME280;11495;55.610;12.100;2022-08-21T01:46:47;101232.25;;;14.05;0.00
22657;BME280;11495;55.610;12.100;2022-08-21T01:49:14;101222.38;;;13.99;0.00
22657;BME280;11495;55.610;12.100;2022-08-21T01:51:41;101237.34;;;13.93;0.00
22657;BME280;11495;55.610;12.100;2022-08-21T01:54:06;101243.19;;;13.87;0.00
22657;BME280;11495;55.610;12.100;2022-08-21T01:56:40;101239.63;;;13.81;0.00
22657;BME280;11495;55.610;12.100;2022-08-21T01:59:07;101251.84;;;13.75;0.00
22657;BME280;11495;55.610;12.100;2022-08-21T02:01:33;101254.63;;;13.70;0.00
22657;BME280;11495;55.610;12.100;2022-08-21T02:03:58;101254.37;;;13.66;0.00
22657;BME280;11495;55.610;12.100;2022-08-21T02:06:25;101263.81;;;13.60;0.00
22657;BME280;11495;55.610;12.100;2022-08-21T02:08:51;101266.06;;;13.53;0.00
22657;BME280;11495;55.610;12.100;2022-08-21T02:11:17;101276.03;;;13.49;0.00
22657;BME280;11495;55.610;12.100;2022-08-21T02:13:43;101268.00;;;13.47;0.00
22657;BME280;11495;55.610;12.100;2022-08-21T02:16:09;101267.47;;;13.45;0.00
22657;BME280;11495;55.610;12.100;2022-08-21T02:18:35;101265.28;;;13.42;0.00
22657;BME280;11495;55.610;12.100;2022-08-21T02:21:02;101254.78;;;13.44;0.00
22657;BME280;11495;55.610;12.100;2022-08-21T02:23:27;101256.72;;;13.44;0.00
22657;BME280;11495;55.610;12.100;2022-08-21T02:25:58;101247.28;;;13.50;0.00
22657;BME280;11495;55.610;12.100;2022-08-21T02:28:23;101235.31;;;13.65;0.00
22657;BME280;11495;55.610;12.100;2022-08-21T02:30:50;101224.75;;;13.72;0.00
22657;BME280;11495;55.610;12.100;2022-08-21T02:33:16;101209.81;;;13.73;0.00
22657;BME280;11495;55.610;12.100;2022-08-21T02:35:46;101204.59;;;13.71;0.00
22657;BME280;11495;55.610;12.100;2022-08-21T02:38:15;101197.94;;;13.72;0.00
22657;BME280;11495;55.610;12.100;2022-08-21T02:40:45;101188.81;;;13.72;0.00
22657;BME280;11495;55.610;12.100;2022-08-21T02:43:11;101188.59;;;13.68;0.00
22657;BME280;11495;55.610;12.100;2022-08-21T02:45:39;101180.28;;;13.68;0.00
22657;BME280;11495;55.610;12.100;2022-08-21T02:48:08;101172.03;;;13.63;0.00
22657;BME280;11495;55.610;12.100;2022-08-21T02:50:42;101161.75;;;13.69;0.00
22657;BME280;11495;55.610;12.100;2022-08-21T02:53:10;101162.09;;;13.62;0.00
22657;BME280;11495;55.610;12.100;2022-08-21T02:55:38;101169.56;;;13.57;0.00
22657;BME280;11495;55.610;12.100;2022-08-21T02:58:06;101159.94;;;13.54;0.00
22657;BME280;11495;55.610;12.100;2022-08-21T03:00:33;101165.47;;;13.54;0.00
22657;BME280;11495;55.610;12.100;2022-08-21T03:02:59;101153.25;;;13.65;0.00
22657;BME280;11495;55.610;12.100;2022-08-21T03:05:26;101142.09;;;13.75;0.00
22657;BME280;11495;55.610;12.100;2022-08-21T03:07:52;101141.41;;;13.89;0.00
22657;BME280;11495;55.610;12.100;2022-08-21T03:10:20;101123.03;;;14.03;0.00
22657;BME280;11495;55.610;12.100;2022-08-21T03:12:46;101117.97;;;14.15;0.00
22657;BME280;11495;55.610;12.100;2022-08-21T03:15:19;101110.19;;;14.17;0.00
22657;BME280;11495;55.610;12.100;2022-08-21T03:17:45;101106.00;;;14.20;0.00
22657;BME280;11495;55.610;12.100;2022-08-21T03:20:19;101095.19;;;14.23;0.00
22657;BME280;11495;55.610;12.100;2022-08-21T03:22:45;101090.72;;;14.27;0.00
22657;BME280;11495;55.610;12.100;2022-08-21T03:25:11;101091.72;;;14.37;0.00
22657;BME280;11495;55.610;12.100;2022-08-21T03:27:37;101083.09;;;14.38;0.00
22657;BME280;11495;55.610;12.100;2022-08-21T03:30:04;101074.28;;;14.36;0.00
22657;BME280;11495;55.610;12.100;2022-08-21T03:32:32;101081.81;;;14.30;0.00
22657;BME280;11495;55.610;12.100;2022-08-21T03:34:58;101088.75;;;14.28;0.00
22657;BME280;11495;55.610;12.100;2022-08-21T03:37:24;101084.69;;;14.20;0.00
22657;BME280;11495;55.610;12.100;2022-08-21T03:39:50;101087.28;;;14.12;0.00
22657;BME280;11495;55.610;12.100;2022-08-21T03:42:16;101095.91;;;14.05;0.00
22657;BME280;11495;55.610;12.100;2022-08-21T03:44:42;101107.28;;;14.03;0.00
22657;BME280;11495;55.610;12.100;2022-08-21T03:47:07;101110.38;;;13.97;0.00
22657;BME280;11495;55.610;12.100;2022-08-21T03:49:33;101112.13;;;13.88;0.00
22657;BME280;11495;55.610;12.100;2022-08-21T03:51:59;101123.50;;;13.81;0.00
22657;BME280;11495;55.610;12.100;2022-08-21T03:54:25;101113.66;;;13.70;0.00
22657;BME280;11495;55.610;12.100;2022-08-21T03:56:50;101130.03;;;13.61;0.00
22657;BME280;11495;55.610;12.100;2022-08-21T03:59:16;101122.34;;;13.53;0.00
22657;BME280;11495;55.610;12.100;2022-08-21T04:01:54;101118.81;;;13.47;0.00
22657;BME280;11495;55.610;12.100;2022-08-21T04:04:19;101131.84;;;13.42;0.00
22657;BME280;11495;55.610;12.100;2022-08-21T04:06:45;101140.97;;;13.37;0.00
22657;BME280;11495;55.610;12.100;2022-08-21T04:09:11;101144.34;;;13.29;0.00
22657;BME280;11495;55.610;12.100;2022-08-21T04:11:36;101149.91;;;13.24;0.00
22657;BME280;11495;55.610;12.100;2022-08-21T04:14:02;101157.38;;;13.18;0.00
22657;BME280;11495;55.610;12.100;2022-08-21T04:16:27;101146.88;;;13.15;0.00
22657;BME280;11495;55.610;12.100;2022-08-21T04:18:53;101147.97;;;13.14;0.00
22657;BME280;11495;55.610;12.100;2022-08-21T04:21:18;101155.19;;;13.10;0.00
22657;BME280;11495;55.610;12.100;2022-08-21T04:23:44;101161.84;;;13.09;0.00
22657;BME280;11495;55.610;12.100;2022-08-21T04:26:09;101168.19;;;13.10;0.00
22657;BME280;11495;55.610;12.100;2022-08-21T04:28:34;101166.78;;;13.07;0.00
22657;BME280;11495;55.610;12.100;2022-08-21T04:31:00;101171.47;;;13.12;0.00
22657;BME280;11495;55.610;12.100;2022-08-21T04:33:25;101168.97;;;13.26;0.00
22657;BME280;11495;55.610;12.100;2022-08-21T04:35:51;101163.09;;;13.37;0.00
22657;BME280;11495;55.610;12.100;2022-08-21T04:38:16;101162.69;;;13.54;0.00
22657;BME280;11495;55.610;12.100;2022-08-21T04:40:42;101160.66;;;13.70;0.00
22657;BME280;11495;55.610;12.100;2022-08-21T04:43:09;101155.53;;;13.87;0.00
22657;BME280;11495;55.610;12.100;2022-08-21T04:45:39;101148.84;;;13.93;0.00
22657;BME280;11495;55.610;12.100;2022-08-21T04:48:06;101147.97;;;13.98;0.00
22657;BME280;11495;55.610;12.100;2022-08-21T04:50:39;101139.09;;;14.01;0.00
22657;BME280;11495;55.610;12.100;2022-08-21T04:53:10;101139.00;;;14.11;0.00
22657;BME280;11495;55.610;12.100;2022-08-21T04:55:37;101135.91;;;14.18;0.00
22657;BME280;11495;55.610;12.100;2022-08-21T04:58:06;101135.59;;;14.19;0.00
22657;BME280;11495;55.610;12.100;2022-08-21T05:00:34;101117.31;;;14.23;0.00
22657;BME280;11495;55.610;12.100;2022-08-21T05:03:00;101115.91;;;14.26;0.00
22657;BME280;11495;55.610;12.100;2022-08-21T05:05:28;101107.00;;;14.29;0.00
22657;BME280;11495;55.610;12.100;2022-08-21T05:07:55;101108.09;;;14.33;0.00
22657;BME280;11495;55.610;12.100;2022-08-21T05:10:21;101110.84;;;14.33;0.00
22657;BME280;11495;55.610;12.100;2022-08-21T05:12:47;101116.31;;;14.38;0.00
22657;BME280;11495;55.610;12.100;2022-08-21T05:15:13;101113.78;;;14.42;0.00
22657;BME280;11495;55.610;12.100;2022-08-21T05:17:39;101117.09;;;14.44;0.00
22657;BME280;11495;55.610;12.100;2022-08-21T05:20:05;101116.53;;;14.47;0.00
22657;BME280;11495;55.610;12.100;2022-08-21T05:22:31;101120.34;;;14.51;0.00
22657;BME280;11495;55.610;12.100;2022-08-21T05:24:57;101122.00;;;14.52;0.00
22657;BME280;11495;55.610;12.100;2022-08-21T05:27:22;101121.13;;;14.56;0.00
22657;BME280;11495;55.610;12.100;2022-08-21T05:29:47;101121.87;;;14.62;0.00
22657;BME280;11495;55.610;12.100;2022-08-21T05:32:13;101127.38;;;14.67;0.00
22657;BME280;11495;55.610;12.100;2022-08-21T05:34:39;101136.41;;;14.73;0.00
22657;BME280;11495;55.610;12.100;2022-08-21T05:37:05;101131.13;;;14.76;0.00
22657;BME280;11495;55.610;12.100;2022-08-21T05:39:31;101139.09;;;14.83;0.00
22657;BME280;11495;55.610;12.100;2022-08-21T05:41:56;101142.53;;;14.94;0.00
22657;BME280;11495;55.610;12.100;2022-08-21T05:44:22;101145.63;;;15.11;0.00
22657;BME280;11495;55.610;12.100;2022-08-21T05:46:47;101147.88;;;15.28;0.00
22657;BME280;11495;55.610;12.100;2022-08-21T05:49:13;101142.34;;;15.46;0.00
22657;BME280;11495;55.610;12.100;2022-08-21T05:51:41;101135.53;;;15.58;0.00
22657;BME280;11495;55.610;12.100;2022-08-21T05:54:07;101135.19;;;15.64;0.00
22657;BME280;11495;55.610;12.100;2022-08-21T05:56:33;101143.34;;;15.75;0.00
22657;BME280;11495;55.610;12.100;2022-08-21T05:58:58;101135.16;;;15.83;0.00
22657;BME280;11495;55.610;12.100;2022-08-21T06:01:24;101146.06;;;15.93;0.00
22657;BME280;11495;55.610;12.100;2022-08-21T06:03:50;101145.81;;;16.09;0.00
22657;BME280;11495;55.610;12.100;2022-08-21T06:06:15;101146.53;;;16.28;0.00
22657;BME280;11495;55.610;12.100;2022-08-21T06:08:41;101151.31;;;16.41;0.00
22657;BME280;11495;55.610;12.100;2022-08-21T06:11:07;101142.88;;;16.60;0.00
22657;BME280;11495;55.610;12.100;2022-08-21T06:13:34;101159.37;;;16.84;0.00
22657;BME280;11495;55.610;12.100;2022-08-21T06:16:12;101167.81;;;17.06;0.00
22657;BME280;11495;55.610;12.100;2022-08-21T06:18:39;101172.31;;;17.30;0.00
22657;BME280;11495;55.610;12.100;2022-08-21T06:21:05;101192.34;;;17.40;0.00
22657;BME280;11495;55.610;12.100;2022-08-21T06:23:31;101216.91;;;17.61;0.00
22657;BME280;11495;55.610;12.100;2022-08-21T06:25:56;101246.28;;;17.81;0.00
22657;BME280;11495;55.610;12.100;2022-08-21T06:28:21;101272.03;;;18.09;0.00
22657;BME280;11495;55.610;12.100;2022-08-21T06:30:47;101298.06;;;18.49;0.00
22657;BME280;11495;55.610;12.100;2022-08-21T06:33:12;101329.94;;;18.79;0.00
22657;BME280;11495;55.610;12.100;2022-08-21T06:35:38;101373.06;;;19.04;0.00
22657;BME280;11495;55.610;12.100;2022-08-21T06:38:03;101419.69;;;19.12;0.00
22657;BME280;11495;55.610;12.100;2022-08-21T06:40:30;101479.34;;;19.33;0.00
22657;BME280;11495;55.610;12.100;2022-08-21T06:42:57;101546.03;;;19.44;0.00
22657;BME280;11495;55.610;12.100;2022-08-21T06:45:23;101591.88;;;19.65;0.00
22657;BME280;11495;55.610;12.100;2022-08-21T06:47:48;101643.37;;;19.81;0.00
22657;BME280;11495;55.610;12.100;2022-08-21T06:50:14;101685.66;;;19.88;0.00
22657;BME280;11495;55.610;12.100;2022-08-21T06:52:39;101718.44;;;20.28;0.00
22657;BME280;11495;55.610;12.100;2022-08-21T06:55:07;101770.94;;;20.17;0.00
22657;BME280;11495;55.610;12.100;2022-08-21T06:57:33;101810.69;;;20.14;0.00
22657;BME280;11495;55.610;12.100;2022-08-21T06:59:58;101835.47;;;20.29;0.00
22657;BME280;11495;55.610;12.100;2022-08-21T07:02:24;101864.09;;;20.35;0.00
22657;BME280;11495;55.610;12.100;2022-08-21T07:04:49;101882.78;;;20.62;0.00
22657;BME280;11495;55.610;12.100;2022-08-21T07:07:16;101914.84;;;20.64;0.00
22657;BME280;11495;55.610;12.100;2022-08-21T07:09:41;101944.28;;;20.84;0.00
22657;BME280;11495;55.610;12.100;2022-08-21T07:12:07;101989.25;;;21.10;0.00
22657;BME280;11495;55.610;12.100;2022-08-21T07:14:32;102034.09;;;21.41;0.00
22657;BME280;11495;55.610;12.100;2022-08-21T07:16:58;102067.63;;;21.86;0.00
22657;BME280;11495;55.610;12.100;2022-08-21T07:19:23;102106.12;;;22.03;0.00
22657;BME280;11495;55.610;12.100;2022-08-21T07:21:49;102168.59;;;22.03;0.00
22657;BME280;11495;55.610;12.100;2022-08-21T07:24:14;102186.44;;;21.63;0.00
22657;BME280;11495;55.610;12.100;2022-08-21T07:26:40;102186.19;;;21.73;0.00
22657;BME280;11495;55.610;12.100;2022-08-21T07:29:06;102192.78;;;21.99;0.00
22657;BME280;11495;55.610;12.100;2022-08-21T07:31:31;102215.66;;;21.93;0.00
22657;BME280;11495;55.610;12.100;2022-08-21T07:33:57;102233.00;;;21.58;0.00
22657;BME280;11495;55.610;12.100;2022-08-21T07:36:22;102200.84;;;21.20;0.00
22657;BME280;11495;55.610;12.100;2022-08-21T07:38:48;102185.28;;;21.14;0.00
22657;BME280;11495;55.610;12.100;2022-08-21T07:41:21;102164.97;;;21.36;0.00
22657;BME280;11495;55.610;12.100;2022-08-21T07:43:46;102171.00;;;21.51;0.00
22657;BME280;11495;55.610;12.100;2022-08-21T07:46:12;102191.00;;;21.58;0.00
22657;BME280;11495;55.610;12.100;2022-08-21T07:48:38;102206.69;;;21.82;0.00
22657;BME280;11495;55.610;12.100;2022-08-21T07:51:06;102186.59;;;22.33;0.00
22657;BME280;11495;55.610;12.100;2022-08-21T07:53:32;102153.84;;;22.11;0.00
22657;BME280;11495;55.610;12.100;2022-08-21T07:55:58;101630.94;;;22.57;0.00
22657;BME280;11495;55.610;12.100;2022-08-21T07:58:23;101616.50;;;22.85;0.00
22657;BME280;11495;55.610;12.100;2022-08-21T08:00:49;100857.47;;;23.12;0.00
22657;BME280;11495;55.610;12.100;2022-08-21T08:03:15;100382.44;;;23.31;0.00
22657;BME280;11495;55.610;12.100;2022-08-21T08:05:40;100481.25;;;23.20;0.00
22657;BME280;11495;55.610;12.100;2022-08-21T08:08:05;100514.97;;;22.69;0.00
22657;BME280;11495;55.610;12.100;2022-08-21T08:10:31;100525.59;;;22.45;0.00
22657;BME280;11495;55.610;12.100;2022-08-21T08:12:56;100494.44;;;22.65;0.00
22657;BME280;11495;55.610;12.100;2022-08-21T08:15:24;100496.31;;;23.32;0.00
22657;BME280;11495;55.610;12.100;2022-08-21T08:17:50;100554.47;;;23.50;0.00
22657;BME280;11495;55.610;12.100;2022-08-21T08:20:16;100576.06;;;23.50;0.00
22657;BME280;11495;55.610;12.100;2022-08-21T08:22:44;100656.81;;;23.72;0.00
22657;BME280;11495;55.610;12.100;2022-08-21T08:25:11;100725.13;;;23.76;0.00
22657;BME280;11495;55.610;12.100;2022-08-21T08:27:38;100788.94;;;23.13;0.00
22657;BME280;11495;55.610;12.100;2022-08-21T08:30:06;100791.34;;;22.98;0.00
22657;BME280;11495;55.610;12.100;2022-08-21T08:32:32;100773.25;;;23.59;0.00
22657;BME280;11495;55.610;12.100;2022-08-21T08:34:58;100828.47;;;23.87;0.00
22657;BME280;11495;55.610;12.100;2022-08-21T08:37:24;100871.00;;;24.20;0.00
22657;BME280;11495;55.610;12.100;2022-08-21T08:39:49;100897.59;;;24.58;0.00
22657;BME280;11495;55.610;12.100;2022-08-21T08:42:24;100909.78;;;24.46;0.00
22657;BME280;11495;55.610;12.100;2022-08-21T08:44:57;100906.59;;;24.48;0.00
22657;BME280;11495;55.610;12.100;2022-08-21T08:47:25;100912.09;;;23.46;0.00
22657;BME280;11495;55.610;12.100;2022-08-21T08:50:03;100903.31;;;23.04;0.00
22657;BME280;11495;55.610;12.100;2022-08-21T08:52:33;100874.88;;;23.65;0.00
22657;BME280;11495;55.610;12.100;2022-08-21T08:55:32;100876.41;;;23.94;0.00
22657;BME280;11495;55.610;12.100;2022-08-21T08:57:59;100898.37;;;24.39;0.00
22657;BME280;11495;55.610;12.100;2022-08-21T09:00:25;100919.72;;;24.79;0.00
22657;BME280;11495;55.610;12.100;2022-08-21T09:02:56;100927.06;;;24.83;0.00
22657;BME280;11495;55.610;12.100;2022-08-21T09:05:30;100940.91;;;24.92;0.00
22657;BME280;11495;55.610;12.100;2022-08-21T09:08:20;100935.06;;;25.01;0.00
22657;BME280;11495;55.610;12.100;2022-08-21T09:10:59;100933.00;;;25.17;0.00
22657;BME280;11495;55.610;12.100;2022-08-21T09:16:00;100935.19;;;25.69;0.00
22657;BME280;11495;55.610;12.100;2022-08-21T09:26:31;100898.91;;;23.62;0.00
22657;BME280;11495;55.610;12.100;2022-08-21T09:29:00;100911.87;;;23.67;0.00
22657;BME280;11495;55.610;12.100;2022-08-21T09:31:32;100917.28;;;23.91;0.00
22657;BME280;11495;55.610;12.100;2022-08-21T09:34:05;100917.88;;;24.16;0.00
22657;BME280;11495;55.610;12.100;2022-08-21T09:36:41;100917.28;;;24.77;0.00
22657;BME280;11495;55.610;12.100;2022-08-21T09:39:09;100919.50;;;24.87;0.00
22657;BME280;11495;55.610;12.100;2022-08-21T09:41:36;100922.75;;;24.89;0.00
22657;BME280;11495;55.610;12.100;2022-08-21T09:44:05;100925.56;;;25.93;0.00
22657;BME280;11495;55.610;12.100;2022-08-21T09:46:31;100917.09;;;25.70;0.00
22657;BME280;11495;55.610;12.100;2022-08-21T09:48:59;100912.16;;;26.13;0.00
22657;BME280;11495;55.610;12.100;2022-08-21T09:51:29;100924.81;;;25.31;0.00
22657;BME280;11495;55.610;12.100;2022-08-21T09:53:58;100921.06;;;24.15;0.00
22657;BME280;11495;55.610;12.100;2022-08-21T09:59:35;100909.34;;;23.77;0.00
22657;BME280;11495;55.610;12.100;2022-08-21T10:02:24;100897.87;;;23.54;0.00
22657;BME280;11495;55.610;12.100;2022-08-21T10:04:59;100892.25;;;23.54;0.00
22657;BME280;11495;55.610;12.100;2022-08-21T10:07:28;100892.91;;;23.95;0.00
22657;BME280;11495;55.610;12.100;2022-08-21T10:12:37;100896.12;;;24.13;0.00
22657;BME280;11495;55.610;12.100;2022-08-21T10:15:18;100883.00;;;24.72;0.00
22657;BME280;11495;55.610;12.100;2022-08-21T10:20:37;100909.34;;;25.87;0.00
22657;BME280;11495;55.610;12.100;2022-08-21T10:23:39;100902.91;;;26.39;0.00
22657;BME280;11495;55.610;12.100;2022-08-21T10:26:27;100903.84;;;26.77;0.00
22657;BME280;11495;55.610;12.100;2022-08-21T10:32:25;100914.50;;;27.65;0.00
22657;BME280;11495;55.610;12.100;2022-08-21T10:40:18;100890.66;;;28.76;0.00
22657;BME280;11495;55.610;12.100;2022-08-21T10:46:00;100893.25;;;29.13;0.00
22657;BME280;11495;55.610;12.100;2022-08-21T10:48:36;100906.28;;;29.57;0.00
22657;BME280;11495;55.610;12.100;2022-08-21T10:51:23;100910.31;;;29.49;0.00
22657;BME280;11495;55.610;12.100;2022-08-21T10:54:15;100915.88;;;29.09;0.00
22657;BME280;11495;55.610;12.100;2022-08-21T10:57:02;100911.31;;;28.83;0.00
22657;BME280;11495;55.610;12.100;2022-08-21T10:59:38;100910.16;;;28.22;0.00
22657;BME280;11495;55.610;12.100;2022-08-21T11:02:22;100908.81;;;28.68;0.00
22657;BME280;11495;55.610;12.100;2022-08-21T11:07:35;100917.97;;;28.40;0.00
22657;BME280;11495;55.610;12.100;2022-08-21T11:10:13;100918.75;;;28.37;0.00
22657;BME280;11495;55.610;12.100;2022-08-21T11:12:44;100929.84;;;27.23;0.00
22657;BME280;11495;55.610;12.100;2022-08-21T11:20:49;100935.31;;;25.11;0.00
22657;BME280;11495;55.610;12.100;2022-08-21T11:23:31;100924.91;;;25.15;0.00
22657;BME280;11495;55.610;12.100;2022-08-21T11:26:02;100924.34;;;25.48;0.00
22657;BME280;11495;55.610;12.100;2022-08-21T11:28:33;100917.91;;;26.20;0.00
22657;BME280;11495;55.610;12.100;2022-08-21T11:31:23;100922.81;;;27.10;0.00
22657;BME280;11495;55.610;12.100;2022-08-21T11:37:08;100921.75;;;27.62;0.00
22657;BME280;11495;55.610;12.100;2022-08-21T11:42:17;100919.72;;;27.63;0.00
22657;BME280;11495;55.610;12.100;2022-08-21T11:44:56;100917.69;;;28.04;0.00
22657;BME280;11495;55.610;12.100;2022-08-21T11:50:10;100914.06;;;28.66;0.00
22657;BME280;11495;55.610;12.100;2022-08-21T11:58:08;100901.81;;;28.40;0.00
22657;BME280;11495;55.610;12.100;2022-08-21T12:01:13;100908.22;;;28.34;0.00
22657;BME280;11495;55.610;12.100;2022-08-21T12:03:33;100894.41;;;29.01;0.00
22657;BME280;11495;55.610;12.100;2022-08-21T12:06:11;100900.56;;;29.35;0.00
22657;BME280;11495;55.610;12.100;2022-08-21T12:08:40;100896.88;;;29.21;0.00
22657;BME280;11495;55.610;12.100;2022-08-21T12:13:56;100918.22;;;26.98;0.00
22657;BME280;11495;55.610;12.100;2022-08-21T12:19:29;100910.97;;;26.67;0.00
22657;BME280;11495;55.610;12.100;2022-08-21T12:26:55;100899.00;;;27.07;0.00
22657;BME280;11495;55.610;12.100;2022-08-21T12:31:53;100908.34;;;26.81;0.00
22657;BME280;11495;55.610;12.100;2022-08-21T12:34:22;100895.75;;;26.75;0.00
22657;BME280;11495;55.610;12.100;2022-08-21T12:36:54;100890.03;;;27.02;0.00
22657;BME280;11495;55.610;12.100;2022-08-21T12:39:25;100882.62;;;27.64;0.00
22657;BME280;11495;55.610;12.100;2022-08-21T12:42:01;100891.41;;;28.04;0.00
22657;BME280;11495;55.610;12.100;2022-08-21T12:45:01;100887.87;;;28.17;0.00
22657;BME280;11495;55.610;12.100;2022-08-21T12:47:54;100892.94;;;27.90;0.00
22657;BME280;11495;55.610;12.100;2022-08-21T12:50:29;100888.53;;;27.93;0.00
22657;BME280;11495;55.610;12.100;2022-08-21T12:53:23;100898.34;;;28.13;0.00
22657;BME280;11495;55.610;12.100;2022-08-21T12:55:47;100884.59;;;28.12;0.00
22657;BME280;11495;55.610;12.100;2022-08-21T12:58:24;100878.94;;;28.08;0.00
22657;BME280;11495;55.610;12.100;2022-08-21T13:00:52;100878.91;;;28.74;0.00
22657;BME280;11495;55.610;12.100;2022-08-21T13:03:21;100876.06;;;28.67;0.00
22657;BME280;11495;55.610;12.100;2022-08-21T13:05:47;100875.97;;;28.52;0.00
22657;BME280;11495;55.610;12.100;2022-08-21T13:08:13;100879.75;;;28.12;0.00
22657;BME280;11495;55.610;12.100;2022-08-21T13:10:40;100871.09;;;28.42;0.00
22657;BME280;11495;55.610;12.100;2022-08-21T13:13:27;100871.91;;;28.46;0.00
22657;BME280;11495;55.610;12.100;2022-08-21T13:15:58;100884.41;;;27.87;0.00
22657;BME280;11495;55.610;12.100;2022-08-21T13:18:28;100875.00;;;28.23;0.00
22657;BME280;11495;55.610;12.100;2022-08-21T13:21:07;100862.31;;;28.79;0.00
22657;BME280;11495;55.610;12.100;2022-08-21T13:23:33;100871.03;;;28.32;0.00
22657;BME280;11495;55.610;12.100;2022-08-21T13:25:59;100876.84;;;27.54;0.00
22657;BME280;11495;55.610;12.100;2022-08-21T13:28:32;100876.03;;;27.53;0.00
22657;BME280;11495;55.610;12.100;2022-08-21T13:30:59;100871.34;;;27.68;0.00
22657;BME280;11495;55.610;12.100;2022-08-21T13:33:29;100861.34;;;27.78;0.00
22657;BME280;11495;55.610;12.100;2022-08-21T13:38:28;100861.97;;;27.60;0.00
22657;BME280;11495;55.610;12.100;2022-08-21T13:40:58;100873.38;;;27.27;0.00
22657;BME280;11495;55.610;12.100;2022-08-21T13:43:32;100882.94;;;27.15;0.00
22657;BME280;11495;55.610;12.100;2022-08-21T13:45:59;100878.00;;;26.45;0.00
22657;BME280;11495;55.610;12.100;2022-08-21T13:48:28;100866.97;;;26.63;0.00
22657;BME280;11495;55.610;12.100;2022-08-21T13:50:55;100869.44;;;26.68;0.00
22657;BME280;11495;55.610;12.100;2022-08-21T13:53:34;100877.22;;;26.44;0.00
22657;BME280;11495;55.610;12.100;2022-08-21T13:56:01;100871.03;;;26.09;0.00
22657;BME280;11495;55.610;12.100;2022-08-21T13:58:49;100859.75;;;26.09;0.00
22657;BME280;11495;55.610;12.100;2022-08-21T14:01:20;100853.63;;;26.59;0.00
22657;BME280;11495;55.610;12.100;2022-08-21T14:03:48;100858.91;;;27.32;0.00
22657;BME280;11495;55.610;12.100;2022-08-21T14:06:17;100853.81;;;27.48;0.00
22657;BME280;11495;55.610;12.100;2022-08-21T14:08:52;100855.22;;;27.68;0.00
22657;BME280;11495;55.610;12.100;2022-08-21T14:11:19;100864.37;;;27.58;0.00